Time;durP1;ratioP1;P1;durP2;ratioP2;P2;SDS_P1;SDS_P2;PMS_P1;PMS_P2;Temp;Humidity;BMP_temperature;BMP_pressure;BME280_temperature;BME280_humidity;BME280_pressure;Samples;Min_cycle;Max_cycle;Signal;HPM_P1;HPM_P2
2022/07/04 00:01:51;;;;;;;3.50;2.42;;;;;;;21.88;63.17;100292.28;2070609;93;25846;-78
2022/07/04 00:05:16;;;;;;;3.12;2.83;;;;;;;21.83;63.39;100300.80;2131733;90;25355;-78
2022/07/04 00:08:53;;;;;;;6.45;2.30;;;;;;;21.76;63.68;100293.44;2130221;91;26116;-78
2022/07/04 00:12:17;;;;;;;2.42;2.15;;;;;;;21.69;63.91;100291.37;2133348;91;25723;-79
2022/07/04 00:15:57;;;;;;;2.90;2.42;;;;;;;21.65;64.17;100288.39;2126907;91;26000;-79
2022/07/04 00:19:29;;;;;;;2.92;2.22;;;;;;;21.59;64.29;100293.83;2125021;92;25807;-80
2022/07/04 00:23:01;;;;;;;4.90;3.05;;;;;;;21.62;64.35;100288.45;2121584;89;25771;-80
2022/07/04 00:26:25;;;;;;;3.60;3.02;;;;;;;21.61;64.44;100286.72;2111551;92;25781;-79
2022/07/04 00:29:45;;;;;;;3.20;2.90;;;;;;;21.54;64.61;100277.63;2123960;91;25983;-79
2022/07/04 00:33:16;;;;;;;3.55;3.25;;;;;;;21.45;64.89;100277.36;2137209;90;30879;-80
2022/07/04 00:36:37;;;;;;;4.53;3.02;;;;;;;21.44;64.98;100269.87;2078540;93;25368;-77
2022/07/04 00:39:58;;;;;;;6.37;2.90;;;;;;;21.43;65.14;100268.13;2087083;93;31030;-80
2022/07/04 00:43:30;;;;;;;3.50;3.08;;;;;;;21.36;65.23;100266.53;2078897;93;26501;-79
2022/07/04 00:46:58;;;;;;;3.27;2.92;;;;;;;21.39;65.44;100268.22;2092165;93;25774;-80
2022/07/04 00:50:22;;;;;;;3.35;2.92;;;;;;;21.36;65.50;100261.23;2082226;93;25769;-79
2022/07/04 00:53:45;;;;;;;3.70;3.15;;;;;;;21.32;65.51;100254.19;2075726;91;25485;-79
2022/07/04 00:57:07;;;;;;;3.52;3.30;;;;;;;21.33;65.75;100251.98;2078311;93;25677;-78
2022/07/04 01:00:30;;;;;;;5.40;3.08;;;;;;;21.29;65.71;100246.76;2080423;93;25681;-79
2022/07/04 01:03:52;;;;;;;4.97;4.08;;;;;;;21.28;65.62;100251.19;2081224;93;25869;-80
2022/07/04 01:07:15;;;;;;;4.28;3.87;;;;;;;21.32;65.80;100248.02;2083746;93;25603;-80
2022/07/04 01:10:48;;;;;;;6.03;3.40;;;;;;;21.29;65.80;100242.78;2079481;93;25875;-80
2022/07/04 01:14:07;;;;;;;5.35;3.60;;;;;;;21.26;65.92;100241.06;2135498;90;25707;-79
2022/07/04 01:17:37;;;;;;;6.30;3.90;;;;;;;21.36;65.90;100245.74;2149218;90;30989;-80
2022/07/04 01:20:57;;;;;;;;;;;;;;;21.39;65.77;100245.67;2136588;91;25682;-80
2022/07/04 01:24:25;;;;;;;3.62;3.33;;;;;;;21.38;65.67;100243.94;2156019;90;31495;-79
2022/07/04 01:27:56;;;;;;;3.98;3.67;;;;;;;21.28;65.73;100241.05;2119015;91;25714;-78
2022/07/04 01:31:29;;;;;;;6.92;3.85;;;;;;;21.20;65.91;100239.45;2151869;90;25768;-79
2022/07/04 01:34:55;;;;;;;3.65;3.40;;;;;;;21.12;66.26;100244.48;2146253;90;25775;-78
2022/07/04 01:38:25;;;;;;;4.20;3.80;;;;;;;21.04;66.42;100246.44;2134188;92;26589;-79
2022/07/04 01:41:46;;;;;;;5.47;4.42;;;;;;;21.02;66.53;100247.78;2149632;90;25901;-79
2022/07/04 01:45:18;;;;;;;4.10;3.58;;;;;;;21.01;66.64;100239.88;2152020;91;30859;-79
2022/07/04 01:49:12;;;;;;;4.90;4.00;;;;;;;20.95;66.78;100251.47;2133488;91;25625;-77
2022/07/04 01:57:14;;;;;;;4.65;3.40;;;;;;;20.94;66.89;100252.39;2056747;95;25791;-80
2022/07/04 02:04:10;;;;;;;3.67;3.37;;;;;;;20.90;67.08;100250.71;2037599;95;25943;-79
2022/07/04 02:07:31;;;;;;;6.65;3.77;;;;;;;20.90;67.00;100254.69;2001417;98;31235;-77
2022/07/04 02:10:51;;;;;;;3.47;3.17;;;;;;;20.75;67.18;100250.13;1972359;99;25824;-78
2022/07/04 02:14:15;;;;;;;4.37;3.98;;;;;;;20.72;67.32;100249.28;1998930;98;25923;-77
2022/07/04 02:17:42;;;;;;;3.98;2.70;;;;;;;20.64;67.47;100257.40;1984564;98;25813;-78
2022/07/04 02:21:12;;;;;;;3.58;3.27;;;;;;;20.61;67.64;100252.16;2026757;97;25700;-79
2022/07/04 02:24:33;;;;;;;4.08;3.67;;;;;;;20.55;67.78;100245.65;2019447;96;31631;-78
2022/07/04 02:28:00;;;;;;;4.03;3.62;;;;;;;20.55;67.78;100245.65;1991736;98;25691;-77
2022/07/04 02:31:24;;;;;;;4.78;3.58;;;;;;;20.58;67.84;100247.37;1969208;99;25893;-78
2022/07/04 02:34:44;;;;;;;3.47;3.20;;;;;;;20.57;67.90;100249.61;1993590;98;31474;-78
2022/07/04 02:38:21;;;;;;;4.35;3.80;;;;;;;20.60;67.94;100249.09;1954380;99;25745;-77
2022/07/04 02:41:55;;;;;;;3.70;3.30;;;;;;;20.53;67.91;100244.83;1992114;97;26108;-77
2022/07/04 02:45:17;;;;;;;3.47;3.10;;;;;;;20.46;67.99;100237.88;2052611;92;25739;-78
2022/07/04 02:48:48;;;;;;;3.92;3.52;;;;;;;20.56;67.93;100239.93;2140219;90;25992;-76
2022/07/04 02:52:09;;;;;;;4.00;3.60;;;;;;;20.52;67.84;100233.82;2137231;91;25272;-79
2022/07/04 02:55:29;;;;;;;3.62;3.10;;;;;;;20.52;67.84;100240.44;2129737;91;25858;-79
2022/07/04 02:58:50;;;;;;;5.22;3.60;;;;;;;20.57;67.86;100248.28;2124994;91;31557;-78
2022/07/04 03:02:33;;;;;;;3.87;3.47;;;;;;;20.65;67.61;100241.05;2131322;91;44530;-78
2022/07/04 03:06:03;;;;;;;5.08;3.77;;;;;;;20.61;67.55;100247.31;2117024;91;25686;-79
2022/07/04 03:09:38;;;;;;;5.10;3.92;;;;;;;20.57;67.79;100249.61;2118140;91;25789;-76
2022/07/04 03:12:58;;;;;;;4.83;3.95;;;;;;;20.58;67.59;100248.24;2133907;87;25668;-78
2022/07/04 03:16:29;;;;;;;4.90;4.40;;;;;;;20.64;67.50;100253.42;2132602;91;25648;-79
2022/07/04 03:20:03;;;;;;;4.12;3.83;;;;;;;20.65;67.58;100256.94;2153264;90;32472;-79
2022/07/04 03:23:34;;;;;;;4.20;3.80;;;;;;;20.50;67.90;100263.39;2151868;87;25648;-78
2022/07/04 03:27:47;;;;;;;3.98;3.67;;;;;;;20.48;67.93;100260.75;2151601;90;25724;-80
2022/07/04 03:31:03;;;;;;;14.40;4.47;;;;;;;20.60;67.78;100258.36;2091416;92;25934;-79
2022/07/04 03:34:39;;;;;;;3.77;3.47;;;;;;;20.64;67.56;100259.18;2103640;92;25710;-79
2022/07/04 03:38:19;;;;;;;7.95;4.80;;;;;;;20.76;67.44;100258.95;2072034;94;25658;-79
2022/07/04 03:41:50;;;;;;;4.33;3.92;;;;;;;20.72;67.28;100264.76;2071638;94;25655;-78
2022/07/04 03:45:29;;;;;;;4.87;4.58;;;;;;;20.72;67.31;100262.53;2076286;94;25818;-76
2022/07/04 03:48:46;;;;;;;4.62;4.10;;;;;;;20.61;67.52;100270.70;2074881;93;25837;-77
2022/07/04 03:52:34;;;;;;;4.28;3.90;;;;;;;20.59;67.83;100273.84;2081580;93;25800;-78
2022/07/04 03:56:08;;;;;;;4.83;4.42;;;;;;;20.66;67.76;100268.84;2082411;93;25852;-78
2022/07/04 03:59:33;;;;;;;4.22;3.90;;;;;;;20.84;67.47;100269.38;2069199;94;25782;-78
2022/07/04 04:03:08;;;;;;;5.10;4.70;;;;;;;20.88;67.43;100277.68;2077754;93;26251;-78
2022/07/04 04:06:29;;;;;;;5.95;4.45;;;;;;;20.98;67.07;100266.85;2095659;91;26094;-80
2022/07/04 04:09:58;;;;;;;9.55;4.70;;;;;;;21.01;66.97;100261.95;2117518;91;25782;-79
2022/07/04 04:13:28;;;;;;;;;;;;;;;21.06;66.98;100262.73;2121194;91;25851;-78
2022/07/04 04:16:54;;;;;;;7.57;4.50;;;;;;;21.17;66.67;100264.70;2122972;90;25659;-76
2022/07/04 04:20:40;;;;;;;5.53;3.95;;;;;;;21.12;66.39;100249.33;2117304;91;25847;-79
2022/07/04 04:24:46;;;;;;;5.85;4.75;;;;;;;21.39;66.38;100269.09;2107284;89;25673;-80
2022/07/04 04:28:14;;;;;;;7.20;4.67;;;;;;;21.45;65.95;100256.15;2085265;94;25804;-75
2022/07/04 04:31:50;;;;;;;4.78;4.22;;;;;;;21.23;65.86;100257.94;2045868;95;25800;-79
2022/07/04 04:35:25;;;;;;;4.92;4.45;;;;;;;21.29;66.12;100256.91;2050584;95;25822;-78
2022/07/04 04:38:58;;;;;;;6.87;3.95;;;;;;;21.41;65.96;100254.48;2052660;95;25753;-78
2022/07/04 04:42:26;;;;;;;4.72;4.33;;;;;;;21.41;65.88;100249.17;2026450;95;25788;-80
2022/07/04 04:45:54;;;;;;;4.53;4.12;;;;;;;21.23;66.05;100249.98;2000122;98;25797;-78
2022/07/04 04:49:15;;;;;;;4.90;4.42;;;;;;;21.13;66.50;100252.42;2017852;96;25254;-78
2022/07/04 04:52:37;;;;;;;4.72;3.98;;;;;;;21.12;66.89;100246.67;2000026;98;25623;-79
2022/07/04 04:56:01;;;;;;;5.17;4.78;;;;;;;21.10;66.83;100245.86;2017654;98;25725;-79
2022/07/04 04:59:22;;;;;;;7.55;4.12;;;;;;;21.18;66.93;100248.33;2021883;97;25780;-77
2022/07/04 05:02:43;;;;;;;7.42;3.80;;;;;;;21.30;66.83;100247.20;2033905;97;25826;-78
2022/07/04 05:06:04;;;;;;;5.95;4.40;;;;;;;21.49;66.72;100247.20;2034157;97;30993;-77
2022/07/04 05:09:25;;;;;;;6.00;3.65;;;;;;;21.71;66.39;100244.93;2034138;97;25752;-78
2022/07/04 05:13:04;;;;;;;6.90;4.67;;;;;;;21.84;66.01;100249.03;2033958;97;25806;-78
2022/07/04 05:16:29;;;;;;;4.47;4.15;;;;;;;21.96;65.79;100256.26;2033714;97;25286;-78
2022/07/04 05:19:50;;;;;;;6.45;5.12;;;;;;;21.98;65.42;100253.98;1998231;97;25794;-76
2022/07/04 05:23:13;;;;;;;5.55;4.55;;;;;;;22.04;65.40;100247.20;2046708;95;25725;-79
2022/07/04 05:26:34;;;;;;;5.20;4.70;;;;;;;22.13;65.25;100252.25;2068396;91;25654;-79
2022/07/04 05:29:55;;;;;;;5.17;4.12;;;;;;;22.06;65.12;100245.36;2118137;90;25376;-76
2022/07/04 05:33:18;;;;;;;7.72;4.33;;;;;;;22.13;65.31;100244.74;2151139;91;25172;-79
2022/07/04 05:36:42;;;;;;;8.23;3.95;;;;;;;22.39;65.07;100258.70;2153405;91;25751;-80
2022/07/04 05:40:14;;;;;;;3.90;3.45;;;;;;;22.71;64.68;100265.77;2147000;90;25688;-80
2022/07/04 05:43:44;;;;;;;7.92;3.95;;;;;;;23.02;64.15;100263.61;2151929;90;25682;-78
2022/07/04 05:47:36;;;;;;;7.60;4.37;;;;;;;23.38;63.66;100268.72;2040008;95;26171;-80
2022/07/04 05:51:15;;;;;;;4.53;4.10;;;;;;;23.70;62.46;100264.63;2036403;95;26514;-79
2022/07/04 05:54:41;;;;;;;8.00;5.58;;;;;;;24.00;62.03;100265.88;2037090;90;25906;-79
2022/07/04 05:58:02;;;;;;;6.80;5.90;;;;;;;24.10;59.21;100265.08;2035745;96;25368;-79
2022/07/04 06:01:36;;;;;;;5.80;5.05;;;;;;;23.91;60.12;100276.36;2038122;95;26035;-80
2022/07/04 06:05:01;;;;;;;11.80;5.47;;;;;;;24.07;59.16;100271.87;2035369;95;25867;-77
2022/07/04 06:08:21;;;;;;;6.25;5.75;;;;;;;24.19;59.19;100269.62;2004959;93;25643;-81
2022/07/04 06:11:47;;;;;;;4.72;4.35;;;;;;;24.26;58.28;100274.28;2034051;95;25544;-77
2022/07/04 06:15:15;;;;;;;4.22;3.80;;;;;;;24.33;58.54;100270.48;2025692;96;26219;-79
2022/07/04 06:18:51;;;;;;;5.47;3.12;;;;;;;24.61;58.47;100269.56;2123305;92;25700;-79
2022/07/04 06:22:25;;;;;;;8.48;4.45;;;;;;;25.02;57.82;100269.82;2078150;93;25981;-79
2022/07/04 06:25:48;;;;;;;6.72;4.53;;;;;;;25.41;56.04;100268.33;2057082;92;25897;-77
2022/07/04 06:29:13;;;;;;;6.17;4.47;;;;;;;25.51;55.22;100257.26;2054841;95;25744;-77
2022/07/04 06:32:57;;;;;;;3.98;3.50;;;;;;;25.69;54.90;100249.86;2063594;94;25382;-76
2022/07/04 06:36:21;;;;;;;7.42;2.45;;;;;;;25.70;52.86;100248.91;2096659;93;25736;-78
2022/07/04 06:39:43;;;;;;;5.95;2.55;;;;;;;25.87;53.50;100250.45;2099536;93;25818;-78
2022/07/04 06:43:12;;;;;;;6.42;3.20;;;;;;;26.27;53.21;100243.88;2099477;93;25708;-79
2022/07/04 06:46:38;;;;;;;10.63;3.42;;;;;;;26.67;52.55;100234.13;2035410;93;25770;-79
2022/07/04 06:50:03;;;;;;;4.92;2.87;;;;;;;27.08;51.26;100228.20;2013402;96;25723;-75
2022/07/04 06:53:27;;;;;;;7.92;2.62;;;;;;;27.30;50.32;100235.64;2048371;94;25861;-78
2022/07/04 06:56:51;;;;;;;4.97;3.10;;;;;;;27.67;50.15;100231.14;2067734;94;25805;-78
2022/07/04 07:00:21;;;;;;;4.50;2.72;;;;;;;27.70;48.15;100230.99;2062302;93;25285;-75
2022/07/04 07:03:43;;;;;;;3.17;2.25;;;;;;;27.70;46.93;100238.16;2071786;92;25790;-78
2022/07/04 07:07:07;;;;;;;3.55;3.25;;;;;;;27.81;47.36;100239.89;2040447;95;25741;-78
2022/07/04 07:10:32;;;;;;;4.60;2.33;;;;;;;28.18;47.59;100237.55;2036109;94;25905;-78
2022/07/04 07:14:02;;;;;;;2.45;1.77;;;;;;;28.55;45.71;100243.66;2059211;94;25577;-79
2022/07/04 07:17:23;;;;;;;6.00;1.62;;;;;;;28.85;46.76;100245.65;2008999;97;25458;-78
2022/07/04 07:20:43;;;;;;;7.62;2.02;;;;;;;28.97;45.03;100242.31;2010143;96;25772;-78
2022/07/04 07:24:04;;;;;;;2.75;1.87;;;;;;;28.75;43.40;100241.73;2006890;96;25686;-80
2022/07/04 07:27:25;;;;;;;4.62;2.15;;;;;;;28.50;44.33;100240.37;2041537;94;25828;-78
2022/07/04 07:30:52;;;;;;;2.52;1.95;;;;;;;28.53;44.81;100240.21;2064122;95;25654;-79
2022/07/04 07:34:30;;;;;;;3.52;1.95;;;;;;;28.95;43.38;100240.17;2066993;95;25732;-90
2022/07/04 07:38:12;;;;;;;5.10;1.60;;;;;;;29.20;44.64;100242.89;2114242;89;25812;-82
2022/07/04 07:41:42;;;;;;;3.70;1.92;;;;;;;29.73;44.26;100249.72;2128892;91;25819;-90
2022/07/04 07:45:26;;;;;;;7.17;2.20;;;;;;;30.15;43.66;100238.27;2069762;93;25927;-84
2022/07/04 07:49:01;;;;;;;4.50;2.10;;;;;;;30.46;41.73;100245.36;2070259;95;25813;-81
2022/07/04 07:52:35;;;;;;;2.27;1.57;;;;;;;30.65;41.86;100248.28;2002664;97;25774;-80
2022/07/04 07:56:09;;;;;;;4.25;1.72;;;;;;;31.14;41.68;100250.09;1889280;103;25961;-79
2022/07/04 08:08:13;;;;;;;5.12;1.70;;;;;;;31.90;38.83;100253.70;1774299;109;25928;-77
2022/07/04 08:11:46;;;;;;;3.40;1.17;;;;;;;31.96;38.61;100252.41;1772114;109;25872;-82
2022/07/04 08:15:37;;;;;;;7.33;1.20;;;;;;;32.21;39.01;100242.17;1766900;111;25808;-80
2022/07/04 08:19:08;;;;;;;3.40;1.35;;;;;;;32.22;38.14;100252.84;1748038;112;25914;-80
2022/07/04 08:22:47;;;;;;;;;;;;;;;;;;;;;
2022/07/04 08:26:20;;;;;;;3.80;1.30;;;;;;;32.13;37.64;100254.84;1747651;113;25923;-83
2022/07/04 08:29:45;;;;;;;3.25;1.07;;;;;;;32.45;37.52;100245.89;1758683;107;25896;-79
2022/07/04 08:33:42;;;;;;;5.78;1.27;;;;;;;32.90;37.28;100247.64;1755390;112;25924;-81
2022/07/04 08:37:17;;;;;;;1.90;0.82;;;;;;;33.26;36.92;100247.34;1756264;112;26280;-80
2022/07/04 08:40:50;;;;;;;2.50;0.90;;;;;;;33.60;35.69;100248.44;1740678;111;26017;-81
2022/07/04 08:44:30;;;;;;;1.62;0.90;;;;;;;33.88;34.67;100256.31;1772468;107;25892;-81
2022/07/04 08:48:30;;;;;;;1.67;0.70;;;;;;;34.03;33.59;100255.19;1809564;107;26110;-81
2022/07/04 08:52:06;;;;;;;2.65;0.90;;;;;;;34.30;33.13;100239.52;1896085;97;25830;-82
2022/07/04 08:59:44;;;;;;;;;;;;;;;;;;;;;
2022/07/04 09:03:54;;;;;;;3.62;0.80;;;;;;;35.18;32.51;100255.14;1922674;100;26044;-82
2022/07/04 09:07:17;;;;;;;1.45;0.75;;;;;;;35.49;31.86;100248.05;1863125;102;25864;-78
2022/07/04 09:10:57;;;;;;;1.20;0.82;;;;;;;35.74;31.44;100243.31;1892509;102;25947;-79
2022/07/04 09:14:36;;;;;;;2.80;0.72;;;;;;;35.37;30.20;100249.09;1873627;105;26137;-76
2022/07/04 09:18:04;;;;;;;1.40;0.80;;;;;;;35.45;29.97;100247.95;1764224;108;25993;-80
2022/07/04 09:22:04;;;;;;;3.85;1.07;;;;;;;35.68;29.63;100248.77;1769283;109;25866;-82
2022/07/04 09:25:33;;;;;;;1.65;0.70;;;;;;;35.91;28.93;100255.45;1740480;111;25922;-79
2022/07/04 09:29:16;;;;;;;1.27;0.68;;;;;;;36.10;28.33;100263.78;1742228;111;25935;-81
2022/07/04 09:33:04;;;;;;;0.90;0.60;;;;;;;36.25;28.45;100267.53;1739458;111;25830;-81
2022/07/04 09:36:41;;;;;;;1.25;0.80;;;;;;;36.31;27.94;100276.01;1738078;112;25839;-81
2022/07/04 09:40:20;;;;;;;2.45;0.55;;;;;;;36.41;27.53;100268.78;1755362;110;25966;-79
2022/07/04 09:44:10;;;;;;;2.33;0.70;;;;;;;36.25;27.25;100271.60;1803680;107;25851;-81
2022/07/04 09:48:01;;;;;;;0.90;0.70;;;;;;;36.07;26.88;100265.41;1837031;100;25759;-80
2022/07/04 09:52:06;;;;;;;1.75;0.90;;;;;;;35.85;26.73;100266.84;1893683;102;26087;-81
2022/07/04 09:55:51;;;;;;;1.70;0.80;;;;;;;35.46;26.85;100256.93;1887883;101;25837;-81
2022/07/04 10:03:32;;;;;;;1.35;0.78;;;;;;;35.37;28.09;100260.39;1945305;99;25899;-82
2022/07/04 10:07:43;;;;;;;3.85;0.90;;;;;;;35.50;27.96;100266.53;1955253;99;25803;-79
2022/07/04 10:11:36;;;;;;;1.17;0.70;;;;;;;35.64;28.00;100255.45;1989799;96;25824;-81
2022/07/04 10:15:40;;;;;;;1.60;0.70;;;;;;;35.67;28.48;100255.67;2026915;96;25649;-83
2022/07/04 10:19:18;;;;;;;1.00;0.70;;;;;;;35.67;28.33;100253.81;1932929;101;25719;-79
2022/07/04 10:23:10;;;;;;;2.08;0.93;;;;;;;35.61;28.27;100244.00;1934034;101;25981;-82
2022/07/04 10:27:13;;;;;;;;;;;;;;;;;;;;;
2022/07/04 10:34:34;;;;;;;0.70;0.70;;;;;;;35.30;28.13;100252.41;1887012;103;25540;-85
2022/07/04 10:38:24;;;;;;;3.25;0.78;;;;;;;35.05;28.72;100250.84;1871530;103;25928;-90
2022/07/04 10:42:13;;;;;;;3.05;0.75;;;;;;;34.98;28.97;100248.59;1766439;111;26031;-89
2022/07/04 10:45:52;;;;;;;5.90;1.20;;;;;;;34.97;29.47;100252.30;1769157;104;25924;-83
2022/07/04 10:49:40;;;;;;;;;;;;;;;;;;;;;
2022/07/04 10:53:20;;;;;;;1.20;1.10;;;;;;;34.76;29.75;100243.17;1771358;110;26117;-84
2022/07/04 10:57:36;;;;;;;;;;;;;;;;;;;;;
2022/07/04 11:01:51;;;;;;;;;;;;;;;;;;;;;
2022/07/04 11:05:22;;;;;;;5.75;0.93;;;;;;;34.68;29.78;100232.95;1855129;105;25381;-85
2022/07/04 11:09:25;;;;;;;1.98;0.85;;;;;;;34.47;29.24;100230.08;1920260;100;25782;-85
2022/07/04 11:13:25;;;;;;;;;;;;;;;;;;;;;
2022/07/04 11:17:00;;;;;;;1.35;0.70;;;;;;;34.08;30.24;100220.51;1897081;102;25855;-86
2022/07/04 11:20:28;;;;;;;2.33;0.85;;;;;;;33.97;30.35;100232.63;1907425;102;25899;-85
2022/07/04 11:23:54;;;;;;;;;;;;;;;34.01;30.52;100221.47;1939434;101;25888;-87
2022/07/04 11:27:27;;;;;;;1.65;1.05;;;;;;;34.04;30.58;100219.89;1941691;100;25879;-86
2022/07/04 11:31:17;;;;;;;1.65;0.80;;;;;;;34.00;30.83;100214.81;1946986;100;26051;-88
2022/07/04 11:35:05;;;;;;;0.88;0.70;;;;;;;34.04;30.96;100216.33;1891947;102;25792;-87
2022/07/04 11:39:12;;;;;;;0.82;0.70;;;;;;;34.11;31.06;100213.52;1922715;98;25789;-88
2022/07/04 11:47:34;;;;;;;3.85;0.98;;;;;;;34.14;30.96;100209.22;1956075;99;26446;-89
2022/07/04 11:51:22;;;;;;;1.17;1.00;;;;;;;34.05;30.13;100200.45;1821015;105;25878;-88
2022/07/04 11:54:57;;;;;;;4.28;0.90;;;;;;;33.88;30.33;100192.75;1836544;106;25778;-88
2022/07/04 11:58:45;;;;;;;1.75;0.78;;;;;;;33.38;30.42;100187.00;1864261;103;25859;-89
2022/07/04 12:02:32;;;;;;;5.50;0.75;;;;;;;33.19;31.11;100190.69;1893103;102;25979;-80
2022/07/04 12:06:07;;;;;;;1.27;0.72;;;;;;;33.19;30.96;100187.98;1932161;99;25862;-85
2022/07/04 12:09:39;;;;;;;1.62;0.80;;;;;;;33.03;31.29;100180.14;1966752;98;31471;-85
2022/07/04 12:13:13;;;;;;;2.50;0.72;;;;;;;33.13;32.63;100174.92;1930304;100;26446;-80
2022/07/04 12:16:38;;;;;;;6.17;0.80;;;;;;;33.28;32.50;100175.16;1925389;102;25825;-85
2022/07/04 12:20:46;;;;;;;1.05;0.80;;;;;;;33.27;32.73;100173.90;1878429;102;25985;-87
2022/07/04 12:24:09;;;;;;;4.83;0.80;;;;;;;33.26;32.31;100177.59;1950747;97;25780;-82
2022/07/04 12:27:52;;;;;;;1.25;0.85;;;;;;;33.15;33.35;100177.04;2001326;93;25718;-85
2022/07/04 12:31:56;;;;;;;;;;;;;;;;;;;;;
2022/07/04 12:35:53;;;;;;;4.12;0.72;;;;;;;32.81;34.06;100179.97;2003024;96;25933;-81
2022/07/04 12:39:45;;;;;;;3.25;0.93;;;;;;;32.63;34.42;100181.64;2013139;95;25529;-80
2022/07/04 12:43:19;;;;;;;1.22;0.75;;;;;;;32.33;34.45;100184.68;2006842;96;26456;-82
2022/07/04 12:47:03;;;;;;;1.25;0.60;;;;;;;32.16;34.76;100175.06;1984684;96;25942;-81
2022/07/04 12:50:53;;;;;;;1.67;0.65;;;;;;;32.03;35.36;100170.61;2030278;95;25982;-82
2022/07/04 12:54:31;;;;;;;0.82;0.80;;;;;;;31.74;35.54;100170.27;2041444;95;25884;-82
2022/07/04 12:58:18;;;;;;;3.30;0.82;;;;;;;31.45;35.66;100172.70;2067748;93;25912;-82
2022/07/04 13:09:41;;;;;;;0.70;0.60;;;;;;;31.17;35.92;100169.11;1874062;103;25851;-82
2022/07/04 13:13:05;;;;;;;0.98;0.70;;;;;;;31.22;35.85;100166.14;1892917;100;25949;-82
2022/07/04 13:16:39;;;;;;;2.95;1.00;;;;;;;31.69;35.20;100157.59;1909085;101;25928;-84
2022/07/04 13:20:18;;;;;;;2.17;1.20;;;;;;;32.14;34.97;100155.91;1908871;101;26343;-83
2022/07/04 13:24:04;;;;;;;1.10;0.80;;;;;;;32.80;33.78;100146.67;1909727;101;25901;-82
2022/07/04 13:28:03;;;;;;;;;;;;;;;;;;;;;
2022/07/04 13:31:52;;;;;;;2.20;1.00;;;;;;;33.32;33.92;100145.57;1747179;112;25853;-88
2022/07/04 13:35:31;;;;;;;2.00;0.93;;;;;;;33.72;32.68;100149.83;1760373;109;26138;-86
2022/07/04 13:39:12;;;;;;;5.17;0.90;;;;;;;34.12;32.42;100157.06;1796257;103;25948;-86
2022/07/04 13:46:28;;;;;;;2.50;0.80;;;;;;;34.78;31.62;100162.17;1837070;105;26021;-84
2022/07/04 13:50:03;;;;;;;1.70;1.20;;;;;;;34.74;31.01;100151.73;1840238;105;26088;-88
2022/07/04 13:53:35;;;;;;;1.92;0.90;;;;;;;34.13;30.32;100160.66;1848328;106;26219;-87
2022/07/04 13:57:01;;;;;;;2.42;1.00;;;;;;;33.47;29.68;100165.65;1821898;106;25867;-81
2022/07/04 14:00:22;;;;;;;1.32;0.90;;;;;;;32.87;30.82;100164.64;1778370;110;25768;-83
2022/07/04 14:03:56;;;;;;;1.00;0.68;;;;;;;32.82;30.99;100170.88;1785629;109;26557;-84
2022/07/04 14:07:33;;;;;;;1.55;0.72;;;;;;;32.61;32.08;100171.45;1852460;103;26452;-81
2022/07/04 14:11:09;;;;;;;2.77;0.85;;;;;;;32.40;31.52;100174.28;1866686;103;25864;-88
2022/07/04 14:15:17;;;;;;;1.32;1.00;;;;;;;32.32;31.67;100164.05;1882840;102;25853;-90
2022/07/04 14:18:39;;;;;;;3.33;1.10;;;;;;;32.37;31.89;100155.64;1895710;101;25817;-86
2022/07/04 14:22:00;;;;;;;1.40;0.82;;;;;;;32.37;31.98;100148.41;1904935;101;25431;-85
2022/07/04 14:25:27;;;;;;;4.05;0.93;;;;;;;32.51;31.74;100143.89;1900995;101;25816;-85
2022/07/04 14:29:07;;;;;;;1.15;0.90;;;;;;;31.80;30.70;100131.74;1978363;97;25837;-83
2022/07/04 14:32:34;;;;;;;3.33;1.07;;;;;;;31.14;32.36;100131.61;2088249;90;25983;-88
2022/07/04 14:36:13;;;;;;;2.17;1.10;;;;;;;31.21;33.25;100134.77;2094274;92;25770;-88
2022/07/04 14:44:04;;;;;;;1.52;0.90;;;;;;;31.52;33.20;100129.55;2102512;91;25814;-86
2022/07/04 14:47:37;;;;;;;3.50;1.40;;;;;;;30.93;33.11;100128.50;2045558;94;25901;-88
2022/07/04 14:51:07;;;;;;;3.42;1.00;;;;;;;30.96;33.27;100124.27;2025124;95;25879;-81
2022/07/04 14:54:42;;;;;;;5.72;1.12;;;;;;;31.03;34.45;100125.59;2078185;91;35540;-81
2022/07/04 14:58:23;;;;;;;1.10;0.90;;;;;;;31.05;35.08;100122.81;2082572;93;25783;-86
2022/07/04 15:02:12;;;;;;;2.98;1.05;;;;;;;31.07;34.60;100127.59;2077817;92;25853;-86
2022/07/04 15:05:44;;;;;;;2.10;1.10;;;;;;;31.07;33.59;100128.09;2077695;93;25882;-85
2022/07/04 15:09:26;;;;;;;4.08;1.32;;;;;;;30.95;34.03;100119.86;2081949;92;25796;-81
2022/07/04 15:12:47;;;;;;;1.02;0.90;;;;;;;30.86;34.69;100121.80;2077475;94;26238;-86
2022/07/04 15:16:10;;;;;;;2.05;1.32;;;;;;;30.76;35.02;100123.36;2063686;94;25960;-89
2022/07/04 15:27:13;;;;;;;6.42;1.45;;;;;;;30.64;36.34;100116.89;2070290;93;25839;-90
2022/07/04 15:30:57;;;;;;;1.25;1.15;;;;;;;30.33;34.66;100108.08;2005331;95;25755;-92
2022/07/04 15:34:29;;;;;;;2.02;1.30;;;;;;;29.68;35.15;100100.03;1995781;97;25375;-93
2022/07/04 15:37:52;;;;;;;1.77;1.12;;;;;;;29.38;35.67;100100.86;2021913;96;25454;-90
2022/07/04 15:41:49;;;;;;;;;;;;;;;;;;;;;
2022/07/04 15:45:17;;;;;;;5.40;1.40;;;;;;;29.57;36.45;100131.53;2025316;96;25943;-92
2022/07/04 15:48:59;;;;;;;1.47;1.32;;;;;;;29.74;36.08;100122.50;2023942;97;25902;-95
2022/07/04 15:52:32;;;;;;;3.17;1.40;;;;;;;29.86;36.87;100113.67;2019280;96;25792;-94
2022/07/04 15:56:24;;;;;;;1.60;1.10;;;;;;;29.89;36.63;100119.73;2022928;96;25401;-94
2022/07/04 16:00:18;;;;;;;;;;;;;;;;;;;;;
2022/07/04 16:04:09;;;;;;;4.33;1.10;;;;;;;29.95;37.63;100119.84;2108664;91;25486;-90
2022/07/04 16:11:41;;;;;;;1.60;1.50;;;;;;;29.97;37.17;100125.11;1939410;101;25849;-90
2022/07/04 16:15:14;;;;;;;2.15;1.40;;;;;;;30.04;37.74;100123.80;1966686;99;25681;-88
2022/07/04 16:18:45;;;;;;;4.28;1.10;;;;;;;29.96;37.89;100119.36;1969750;97;25500;-85
2022/07/04 16:22:46;;;;;;;2.83;1.15;;;;;;;29.95;39.33;100118.98;1868796;103;25881;-89
2022/07/04 16:27:20;;;;;;;1.47;1.37;;;;;;;29.88;38.54;100123.38;1838059;105;25902;-90
2022/07/04 16:31:01;;;;;;;2.95;1.45;;;;;;;29.86;39.29;100127.11;1834397;105;25910;-91
2022/07/04 16:34:32;;;;;;;1.72;1.62;;;;;;;29.77;37.98;100120.97;1801791;107;25868;-87
2022/07/04 16:38:50;;;;;;;;;;;;;;;;;;;;;
2022/07/04 16:41:47;;;;;;;1.60;1.50;;;;;;;29.62;39.30;100104.79;1759297;110;26161;-88
2022/07/04 16:45:28;;;;;;;3.65;1.62;;;;;;;29.62;39.75;100104.79;1768089;110;25937;-89
2022/07/04 16:57:15;;;;;;;1.67;1.30;;;;;;;29.69;43.37;100089.17;1793433;108;25842;-87
2022/07/04 17:00:50;;;;;;;3.58;1.40;;;;;;;29.73;42.99;100092.53;1809303;107;25409;-92
2022/07/04 17:04:33;;;;;;;6.17;1.30;;;;;;;29.67;42.84;100093.79;1792221;108;25501;-87
2022/07/04 17:11:35;;;;;;;2.37;1.37;;;;;;;29.76;42.81;100093.69;1760456;109;25552;-92
2022/07/04 17:15:20;;;;;;;2.47;1.57;;;;;;;29.71;42.64;100091.78;1752415;112;26139;-93
2022/07/04 17:18:49;;;;;;;2.72;1.42;;;;;;;29.72;40.80;100089.47;1741820;112;25484;-88
2022/07/04 17:22:27;;;;;;;3.97;1.70;;;;;;;29.30;39.00;100090.58;1765656;106;25410;-94
2022/07/04 17:25:55;;;;;;;4.75;1.40;;;;;;;29.10;39.43;100094.42;1835138;105;25373;-90
2022/07/04 17:29:35;;;;;;;2.08;1.32;;;;;;;29.00;39.60;100078.94;1845549;103;25486;-92
2022/07/04 17:33:22;;;;;;;4.62;1.50;;;;;;;29.04;39.35;100086.72;1900581;101;26474;-92
2022/07/04 17:37:22;;;;;;;;;;;;;;;;;;;;;
2022/07/04 17:44:56;;;;;;;1.92;1.75;;;;;;;29.19;40.16;100074.20;1975932;98;25424;-92
2022/07/04 17:48:24;;;;;;;4.12;2.00;;;;;;;29.26;41.13;100071.58;2014919;96;25725;-92
2022/07/04 17:52:00;;;;;;;2.22;1.80;;;;;;;29.38;39.80;100072.66;2008321;97;25886;-93
2022/07/04 17:55:51;;;;;;;2.10;1.90;;;;;;;29.46;39.44;100072.19;1973946;99;26438;-84
2022/07/04 18:07:12;;;;;;;1.85;1.60;;;;;;;29.41;42.21;100072.00;1867604;104;25795;-92
2022/07/04 18:16:47;;;;;;;;;;;;;;;;;;;;;
2022/07/04 18:24:57;;;;;;;5.42;1.67;;;;;;;29.11;43.57;100084.54;1801436;108;26003;-93
2022/07/04 18:28:38;;;;;;;1.90;1.60;;;;;;;28.98;43.86;100087.03;;;;
2022/07/04 18:37:17;;;;;;;5.08;2.20;;;;;;;28.89;44.43;100100.97;1770578;110;25852;-92
2022/07/04 18:44:50;;;;;;;5.17;1.85;;;;;;;28.80;44.09;100101.03;1751453;110;25797;-90
2022/07/04 18:48:20;;;;;;;4.90;2.15;;;;;;;28.67;44.09;100105.34;1761405;108;25859;-91
2022/07/04 18:52:09;;;;;;;;;;;;;;;;;;;;;